Crabb, Texas
Current Conditions -  °F | °C
As of 7:53 AM on Monday 20 Oct 2014 (Local Time) from KSGR Reporting Station
Clear Clear  
Wind Chill: 64°   Ceiling: Unl
Heat Index: 64°   Visibility: 10mi
Dew Point: 59°   Wind: 7mph
Humidity: 84%   Direction: 30°NNE
Pressure: 30.03"   Gusts: NA
Location:  29.4892°N, 95.6914°W
Report Text: KSGR 201253Z 03006KT 10SM CLR 18/15 A3003 RMK AO2 SLP169 T01780150
Loading
Personal Weather Stations






























Interactive Weather Map
Tropical Storm Tracking
New forecast layout! Learn more

10-Day Weather Forecast

Advertisements
Track Severe Weather on mobile